sensor_id;sensor_type;location;lat;lon;timestamp;pressure;altitude;pressure_sealevel;temperature;humidity
9289;BME280;4683;50.864;12.086;2023-01-15T00:02:15;97644.44;;;10.20;100.00
9289;BME280;4683;50.864;12.086;2023-01-15T00:04:44;97640.59;;;10.22;100.00
9289;BME280;4683;50.864;12.086;2023-01-15T00:07:14;97633.50;;;10.16;100.00
9289;BME280;4683;50.864;12.086;2023-01-15T00:09:43;97637.75;;;10.17;100.00
9289;BME280;4683;50.864;12.086;2023-01-15T00:12:11;97635.88;;;10.31;100.00
9289;BME280;4683;50.864;12.086;2023-01-15T00:14:39;97625.59;;;10.48;100.00
9289;BME280;4683;50.864;12.086;2023-01-15T00:17:07;97618.56;;;10.41;100.00
9289;BME280;4683;50.864;12.086;2023-01-15T00:19:36;97617.53;;;10.43;100.00
9289;BME280;4683;50.864;12.086;2023-01-15T00:22:05;97595.22;;;10.45;100.00
9289;BME280;4683;50.864;12.086;2023-01-15T00:24:34;97586.94;;;10.41;100.00
9289;BME280;4683;50.864;12.086;2023-01-15T00:27:21;97591.78;;;10.45;100.00
9289;BME280;4683;50.864;12.086;2023-01-15T00:30:12;97583.41;;;10.48;100.00
9289;BME280;4683;50.864;12.086;2023-01-15T00:32:43;97569.84;;;10.44;100.00
9289;BME280;4683;50.864;12.086;2023-01-15T00:35:13;97573.34;;;10.45;100.00
9289;BME280;4683;50.864;12.086;2023-01-15T00:37:43;97557.28;;;10.46;100.00
9289;BME280;4683;50.864;12.086;2023-01-15T00:40:17;97558.66;;;10.49;100.00
9289;BME280;4683;50.864;12.086;2023-01-15T00:42:46;97554.03;;;10.44;100.00
9289;BME280;4683;50.864;12.086;2023-01-15T00:45:14;97559.28;;;10.51;100.00
9289;BME280;4683;50.864;12.086;2023-01-15T00:47:44;97539.66;;;10.65;100.00
9289;BME280;4683;50.864;12.086;2023-01-15T00:50:15;97543.38;;;10.57;100.00
9289;BME280;4683;50.864;12.086;2023-01-15T00:52:44;97530.41;;;10.56;100.00
9289;BME280;4683;50.864;12.086;2023-01-15T00:55:14;97513.72;;;10.80;100.00
9289;BME280;4683;50.864;12.086;2023-01-15T00:57:43;97527.78;;;10.56;100.00
9289;BME280;4683;50.864;12.086;2023-01-15T01:00:12;97529.34;;;10.63;100.00
9289;BME280;4683;50.864;12.086;2023-01-15T01:02:42;97529.53;;;10.62;100.00
9289;BME280;4683;50.864;12.086;2023-01-15T01:05:13;97527.03;;;10.67;100.00
9289;BME280;4683;50.864;12.086;2023-01-15T01:07:41;97510.50;;;10.60;100.00
9289;BME280;4683;50.864;12.086;2023-01-15T01:10:11;97506.91;;;10.54;100.00
9289;BME280;4683;50.864;12.086;2023-01-15T01:12:40;97514.09;;;10.65;100.00
9289;BME280;4683;50.864;12.086;2023-01-15T01:15:09;97509.09;;;10.57;100.00
9289;BME280;4683;50.864;12.086;2023-01-15T01:17:38;97522.00;;;10.65;100.00
9289;BME280;4683;50.864;12.086;2023-01-15T01:20:10;97509.75;;;10.53;100.00
9289;BME280;4683;50.864;12.086;2023-01-15T01:22:40;97520.16;;;10.66;100.00
9289;BME280;4683;50.864;12.086;2023-01-15T01:28:42;97520.31;;;10.53;100.00
9289;BME280;4683;50.864;12.086;2023-01-15T01:31:11;97520.69;;;10.56;100.00
9289;BME280;4683;50.864;12.086;2023-01-15T01:33:39;97511.97;;;10.74;100.00
9289;BME280;4683;50.864;12.086;2023-01-15T01:36:08;97531.75;;;10.83;100.00
9289;BME280;4683;50.864;12.086;2023-01-15T01:38:37;97518.03;;;10.75;100.00
9289;BME280;4683;50.864;12.086;2023-01-15T01:41:05;97525.81;;;10.88;100.00
9289;BME280;4683;50.864;12.086;2023-01-15T01:43:55;97524.50;;;10.79;100.00
9289;BME280;4683;50.864;12.086;2023-01-15T01:46:25;97525.31;;;10.79;100.00
9289;BME280;4683;50.864;12.086;2023-01-15T01:49:00;97529.69;;;10.85;100.00
9289;BME280;4683;50.864;12.086;2023-01-15T01:51:34;97515.50;;;10.86;100.00
9289;BME280;4683;50.864;12.086;2023-01-15T01:54:06;97487.28;;;10.87;100.00
9289;BME280;4683;50.864;12.086;2023-01-15T01:56:37;97492.31;;;10.88;100.00
9289;BME280;4683;50.864;12.086;2023-01-15T01:59:09;97476.06;;;10.91;100.00
9289;BME280;4683;50.864;12.086;2023-01-15T02:01:39;97474.72;;;11.01;100.00
9289;BME280;4683;50.864;12.086;2023-01-15T02:04:08;97472.75;;;10.96;100.00
9289;BME280;4683;50.864;12.086;2023-01-15T02:06:38;97471.97;;;10.96;100.00
9289;BME280;4683;50.864;12.086;2023-01-15T02:09:08;97449.69;;;10.91;100.00
9289;BME280;4683;50.864;12.086;2023-01-15T02:11:37;97453.34;;;10.90;100.00
9289;BME280;4683;50.864;12.086;2023-01-15T02:14:13;97449.31;;;10.88;100.00
9289;BME280;4683;50.864;12.086;2023-01-15T02:16:49;97451.72;;;10.89;100.00
9289;BME280;4683;50.864;12.086;2023-01-15T02:19:33;97448.41;;;10.94;100.00
9289;BME280;4683;50.864;12.086;2023-01-15T02:22:17;97439.50;;;10.95;100.00
9289;BME280;4683;50.864;12.086;2023-01-15T02:24:59;97440.31;;;10.96;100.00
9289;BME280;4683;50.864;12.086;2023-01-15T02:27:33;97446.44;;;10.89;100.00
9289;BME280;4683;50.864;12.086;2023-01-15T02:30:09;97452.03;;;11.00;100.00
9289;BME280;4683;50.864;12.086;2023-01-15T02:32:44;97450.69;;;11.09;100.00
9289;BME280;4683;50.864;12.086;2023-01-15T02:35:19;97449.72;;;11.03;100.00
9289;BME280;4683;50.864;12.086;2023-01-15T02:37:54;97449.34;;;11.18;100.00
9289;BME280;4683;50.864;12.086;2023-01-15T02:40:25;97443.34;;;11.11;100.00
9289;BME280;4683;50.864;12.086;2023-01-15T02:42:57;97443.34;;;11.11;100.00
9289;BME280;4683;50.864;12.086;2023-01-15T02:45:30;97434.31;;;11.18;100.00
9289;BME280;4683;50.864;12.086;2023-01-15T02:48:07;97426.69;;;11.10;100.00
9289;BME280;4683;50.864;12.086;2023-01-15T02:50:43;97416.72;;;11.12;100.00
9289;BME280;4683;50.864;12.086;2023-01-15T02:53:17;97424.09;;;11.22;100.00
9289;BME280;4683;50.864;12.086;2023-01-15T02:55:50;97425.59;;;11.18;100.00
9289;BME280;4683;50.864;12.086;2023-01-15T02:58:25;97424.66;;;11.24;100.00
9289;BME280;4683;50.864;12.086;2023-01-15T03:01:01;97420.50;;;11.16;100.00
9289;BME280;4683;50.864;12.086;2023-01-15T03:03:38;97407.91;;;11.18;100.00
9289;BME280;4683;50.864;12.086;2023-01-15T03:06:15;97407.13;;;11.18;100.00
9289;BME280;4683;50.864;12.086;2023-01-15T03:08:46;97401.72;;;11.25;100.00
9289;BME280;4683;50.864;12.086;2023-01-15T03:11:18;97410.06;;;11.22;100.00
9289;BME280;4683;50.864;12.086;2023-01-15T03:13:55;97402.16;;;11.10;100.00
9289;BME280;4683;50.864;12.086;2023-01-15T03:16:34;97407.19;;;11.11;100.00
9289;BME280;4683;50.864;12.086;2023-01-15T03:19:14;97398.16;;;11.19;100.00
9289;BME280;4683;50.864;12.086;2023-01-15T03:21:51;97392.16;;;11.12;100.00
9289;BME280;4683;50.864;12.086;2023-01-15T03:24:27;97388.84;;;11.16;100.00
9289;BME280;4683;50.864;12.086;2023-01-15T03:26:58;97381.28;;;11.20;100.00
9289;BME280;4683;50.864;12.086;2023-01-15T03:29:33;97383.06;;;11.08;100.00
9289;BME280;4683;50.864;12.086;2023-01-15T03:32:07;97386.69;;;11.13;100.00
9289;BME280;4683;50.864;12.086;2023-01-15T03:34:44;97388.94;;;11.10;100.00
9289;BME280;4683;50.864;12.086;2023-01-15T03:37:13;97389.78;;;11.22;100.00
9289;BME280;4683;50.864;12.086;2023-01-15T03:39:42;97381.88;;;11.22;100.00
9289;BME280;4683;50.864;12.086;2023-01-15T03:42:28;97380.13;;;11.16;100.00
9289;BME280;4683;50.864;12.086;2023-01-15T03:45:08;97380.59;;;11.25;100.00
9289;BME280;4683;50.864;12.086;2023-01-15T03:47:49;97365.69;;;11.18;100.00
9289;BME280;4683;50.864;12.086;2023-01-15T03:50:26;97363.97;;;11.24;100.00
9289;BME280;4683;50.864;12.086;2023-01-15T03:53:07;97367.53;;;11.18;100.00
9289;BME280;4683;50.864;12.086;2023-01-15T03:55:44;97371.41;;;11.15;100.00
9289;BME280;4683;50.864;12.086;2023-01-15T03:58:21;97361.66;;;11.16;100.00
9289;BME280;4683;50.864;12.086;2023-01-15T04:00:56;97367.84;;;11.10;100.00
9289;BME280;4683;50.864;12.086;2023-01-15T04:03:27;97361.31;;;11.24;100.00
9289;BME280;4683;50.864;12.086;2023-01-15T04:05:58;97359.81;;;11.16;100.00
9289;BME280;4683;50.864;12.086;2023-01-15T04:08:32;97355.13;;;11.18;100.00
9289;BME280;4683;50.864;12.086;2023-01-15T04:11:02;97355.94;;;11.19;100.00
9289;BME280;4683;50.864;12.086;2023-01-15T04:13:33;97362.94;;;11.13;100.00
9289;BME280;4683;50.864;12.086;2023-01-15T04:16:05;97365.31;;;11.15;100.00
9289;BME280;4683;50.864;12.086;2023-01-15T04:18:33;97371.88;;;11.24;100.00
9289;BME280;4683;50.864;12.086;2023-01-15T04:21:01;97355.13;;;11.18;100.00
9289;BME280;4683;50.864;12.086;2023-01-15T04:23:29;97354.56;;;11.28;100.00
9289;BME280;4683;50.864;12.086;2023-01-15T04:25:57;97346.06;;;11.26;100.00
9289;BME280;4683;50.864;12.086;2023-01-15T04:28:25;97348.78;;;11.08;100.00
9289;BME280;4683;50.864;12.086;2023-01-15T04:30:56;97361.28;;;11.01;100.00
9289;BME280;4683;50.864;12.086;2023-01-15T04:33:27;97351.41;;;11.08;100.00
9289;BME280;4683;50.864;12.086;2023-01-15T04:35:58;97356.50;;;11.09;100.00
9289;BME280;4683;50.864;12.086;2023-01-15T04:38:27;97406.00;;;10.96;100.00
9289;BME280;4683;50.864;12.086;2023-01-15T04:40:55;97445.63;;;10.59;100.00
9289;BME280;4683;50.864;12.086;2023-01-15T04:43:44;97431.81;;;9.20;100.00
9289;BME280;4683;50.864;12.086;2023-01-15T04:46:30;97408.19;;;8.75;100.00
9289;BME280;4683;50.864;12.086;2023-01-15T04:48:59;97385.16;;;8.71;100.00
9289;BME280;4683;50.864;12.086;2023-01-15T04:51:27;97386.66;;;8.53;100.00
9289;BME280;4683;50.864;12.086;2023-01-15T04:53:56;97407.91;;;8.52;100.00
9289;BME280;4683;50.864;12.086;2023-01-15T04:56:24;97397.44;;;8.38;100.00
9289;BME280;4683;50.864;12.086;2023-01-15T04:58:53;97384.91;;;8.41;100.00
9289;BME280;4683;50.864;12.086;2023-01-15T05:01:22;97390.56;;;8.37;100.00
9289;BME280;4683;50.864;12.086;2023-01-15T05:03:50;97391.75;;;8.35;100.00
9289;BME280;4683;50.864;12.086;2023-01-15T05:06:20;97408.97;;;8.37;100.00
9289;BME280;4683;50.864;12.086;2023-01-15T05:08:48;97412.19;;;8.26;100.00
9289;BME280;4683;50.864;12.086;2023-01-15T05:11:17;97427.34;;;8.37;100.00
9289;BME280;4683;50.864;12.086;2023-01-15T05:13:45;97431.16;;;8.35;100.00
9289;BME280;4683;50.864;12.086;2023-01-15T05:16:18;97434.81;;;8.34;100.00
9289;BME280;4683;50.864;12.086;2023-01-15T05:18:47;97427.16;;;8.32;100.00
9289;BME280;4683;50.864;12.086;2023-01-15T05:21:17;97433.00;;;8.28;100.00
9289;BME280;4683;50.864;12.086;2023-01-15T05:23:50;97441.50;;;8.23;100.00
9289;BME280;4683;50.864;12.086;2023-01-15T05:26:19;97442.28;;;8.30;100.00
9289;BME280;4683;50.864;12.086;2023-01-15T05:28:48;97447.53;;;8.30;100.00
9289;BME280;4683;50.864;12.086;2023-01-15T05:31:18;97448.16;;;8.39;100.00
9289;BME280;4683;50.864;12.086;2023-01-15T05:33:48;97451.97;;;8.50;100.00
9289;BME280;4683;50.864;12.086;2023-01-15T05:36:20;97458.00;;;8.57;100.00
9289;BME280;4683;50.864;12.086;2023-01-15T05:38:51;97456.00;;;8.59;100.00
9289;BME280;4683;50.864;12.086;2023-01-15T05:41:21;97462.03;;;8.66;100.00
9289;BME280;4683;50.864;12.086;2023-01-15T05:44:11;97469.09;;;8.66;100.00
9289;BME280;4683;50.864;12.086;2023-01-15T05:46:43;97473.50;;;8.72;100.00
9289;BME280;4683;50.864;12.086;2023-01-15T05:49:13;97479.22;;;8.62;100.00
9289;BME280;4683;50.864;12.086;2023-01-15T05:51:42;97488.31;;;8.66;100.00
9289;BME280;4683;50.864;12.086;2023-01-15T05:54:15;97507.72;;;8.65;100.00
9289;BME280;4683;50.864;12.086;2023-01-15T05:56:44;97512.78;;;8.60;100.00
9289;BME280;4683;50.864;12.086;2023-01-15T05:59:14;97524.31;;;8.59;100.00
9289;BME280;4683;50.864;12.086;2023-01-15T06:01:43;97524.31;;;8.59;100.00
9289;BME280;4683;50.864;12.086;2023-01-15T06:04:12;97519.91;;;8.46;100.00
9289;BME280;4683;50.864;12.086;2023-01-15T06:06:43;97516.84;;;8.49;100.00
9289;BME280;4683;50.864;12.086;2023-01-15T06:09:15;97514.22;;;8.56;100.00
9289;BME280;4683;50.864;12.086;2023-01-15T06:11:44;97509.78;;;8.50;100.00
9289;BME280;4683;50.864;12.086;2023-01-15T06:14:13;97520.28;;;8.30;100.00
9289;BME280;4683;50.864;12.086;2023-01-15T06:16:42;97509.59;;;8.38;100.00
9289;BME280;4683;50.864;12.086;2023-01-15T06:19:12;97527.19;;;8.37;100.00
9289;BME280;4683;50.864;12.086;2023-01-15T06:21:41;97528.38;;;8.28;100.00
9289;BME280;4683;50.864;12.086;2023-01-15T06:24:09;97517.88;;;8.28;100.00
9289;BME280;4683;50.864;12.086;2023-01-15T06:26:38;97536.06;;;8.23;100.00
9289;BME280;4683;50.864;12.086;2023-01-15T06:29:07;97546.56;;;8.17;100.00
9289;BME280;4683;50.864;12.086;2023-01-15T06:31:35;97546.78;;;8.08;100.00
9289;BME280;4683;50.864;12.086;2023-01-15T06:34:04;97551.63;;;8.05;100.00
9289;BME280;4683;50.864;12.086;2023-01-15T06:36:33;97558.69;;;7.98;100.00
9289;BME280;4683;50.864;12.086;2023-01-15T06:39:01;97562.31;;;7.97;100.00
9289;BME280;4683;50.864;12.086;2023-01-15T06:41:29;97568.38;;;7.97;100.00
9289;BME280;4683;50.864;12.086;2023-01-15T06:44:17;97558.69;;;7.91;100.00
9289;BME280;4683;50.864;12.086;2023-01-15T06:47:13;97557.06;;;7.83;100.00
9289;BME280;4683;50.864;12.086;2023-01-15T06:49:49;97571.78;;;7.84;100.00
9289;BME280;4683;50.864;12.086;2023-01-15T06:52:17;97587.97;;;7.81;100.00
9289;BME280;4683;50.864;12.086;2023-01-15T06:54:46;97595.00;;;7.74;100.00
9289;BME280;4683;50.864;12.086;2023-01-15T06:57:15;97583.63;;;7.54;100.00
9289;BME280;4683;50.864;12.086;2023-01-15T06:59:46;97582.06;;;7.59;100.00
9289;BME280;4683;50.864;12.086;2023-01-15T07:02:14;97587.84;;;7.42;100.00
9289;BME280;4683;50.864;12.086;2023-01-15T07:04:44;97593.09;;;7.42;100.00
9289;BME280;4683;50.864;12.086;2023-01-15T07:07:13;97606.53;;;7.25;100.00
9289;BME280;4683;50.864;12.086;2023-01-15T07:09:41;97624.03;;;7.11;100.00
9289;BME280;4683;50.864;12.086;2023-01-15T07:12:10;97631.03;;;6.98;100.00
9289;BME280;4683;50.864;12.086;2023-01-15T07:14:38;97624.63;;;7.07;100.00
9289;BME280;4683;50.864;12.086;2023-01-15T07:17:08;97652.41;;;7.01;100.00
9289;BME280;4683;50.864;12.086;2023-01-15T07:19:36;97637.50;;;7.02;100.00
9289;BME280;4683;50.864;12.086;2023-01-15T07:22:05;97640.72;;;7.04;100.00
9289;BME280;4683;50.864;12.086;2023-01-15T07:24:34;97644.34;;;7.03;100.00
9289;BME280;4683;50.864;12.086;2023-01-15T07:27:02;97659.25;;;6.96;100.00
9289;BME280;4683;50.864;12.086;2023-01-15T07:29:30;97665.66;;;6.86;100.00
9289;BME280;4683;50.864;12.086;2023-01-15T07:31:59;97672.06;;;6.84;100.00
9289;BME280;4683;50.864;12.086;2023-01-15T07:34:28;97689.75;;;6.75;100.00
9289;BME280;4683;50.864;12.086;2023-01-15T07:36:57;97694.13;;;6.68;100.00
9289;BME280;4683;50.864;12.086;2023-01-15T07:39:25;97673.53;;;6.65;100.00
9289;BME280;4683;50.864;12.086;2023-01-15T07:41:54;97674.66;;;6.77;100.00
9289;BME280;4683;50.864;12.086;2023-01-15T07:44:41;97689.94;;;6.74;100.00
9289;BME280;4683;50.864;12.086;2023-01-15T07:47:26;97688.72;;;6.76;100.00
9289;BME280;4683;50.864;12.086;2023-01-15T07:50:18;97679.31;;;6.82;100.00
9289;BME280;4683;50.864;12.086;2023-01-15T07:52:47;97691.84;;;6.86;100.00
9289;BME280;4683;50.864;12.086;2023-01-15T07:55:15;97695.06;;;6.89;100.00
9289;BME280;4683;50.864;12.086;2023-01-15T07:57:44;97668.16;;;7.01;100.00
9289;BME280;4683;50.864;12.086;2023-01-15T08:00:19;97676.84;;;7.08;100.00
9289;BME280;4683;50.864;12.086;2023-01-15T08:02:47;97689.78;;;7.10;100.00
9289;BME280;4683;50.864;12.086;2023-01-15T08:05:19;97682.53;;;7.12;100.00
9289;BME280;4683;50.864;12.086;2023-01-15T08:07:47;97689.78;;;7.10;100.00
9289;BME280;4683;50.864;12.086;2023-01-15T08:10:16;97695.59;;;7.05;100.00
9289;BME280;4683;50.864;12.086;2023-01-15T08:12:48;97696.19;;;7.01;100.00
9289;BME280;4683;50.864;12.086;2023-01-15T08:15:38;97700.19;;;6.97;100.00
9289;BME280;4683;50.864;12.086;2023-01-15T08:18:09;97686.72;;;7.00;100.00
9289;BME280;4683;50.864;12.086;2023-01-15T08:20:39;97686.72;;;7.06;100.00
9289;BME280;4683;50.864;12.086;2023-01-15T08:23:07;97682.66;;;7.04;100.00
9289;BME280;4683;50.864;12.086;2023-01-15T08:25:36;97684.09;;;7.00;100.00
9289;BME280;4683;50.864;12.086;2023-01-15T08:28:04;97675.44;;;7.06;100.00
9289;BME280;4683;50.864;12.086;2023-01-15T08:30:34;97691.53;;;7.03;100.00
9289;BME280;4683;50.864;12.086;2023-01-15T08:33:02;97697.56;;;6.97;100.00
9289;BME280;4683;50.864;12.086;2023-01-15T08:35:31;97683.41;;;6.91;100.00
9289;BME280;4683;50.864;12.086;2023-01-15T08:38:05;97703.97;;;6.94;100.00
9289;BME280;4683;50.864;12.086;2023-01-15T08:40:34;97734.19;;;6.90;100.00
9289;BME280;4683;50.864;12.086;2023-01-15T08:43:23;97735.28;;;6.74;100.00
9289;BME280;4683;50.864;12.086;2023-01-15T08:45:55;97738.03;;;6.66;100.00
9289;BME280;4683;50.864;12.086;2023-01-15T08:48:26;97740.66;;;6.66;100.00
9289;BME280;4683;50.864;12.086;2023-01-15T08:50:55;97737.66;;;6.69;100.00
9289;BME280;4683;50.864;12.086;2023-01-15T08:53:25;97729.25;;;6.74;100.00
9289;BME280;4683;50.864;12.086;2023-01-15T08:55:55;97734.03;;;6.70;100.00
9289;BME280;4683;50.864;12.086;2023-01-15T08:58:26;97751.63;;;6.76;100.00
9289;BME280;4683;50.864;12.086;2023-01-15T09:00:55;97761.88;;;6.71;100.00
9289;BME280;4683;50.864;12.086;2023-01-15T09:03:24;97759.47;;;6.76;100.00
9289;BME280;4683;50.864;12.086;2023-01-15T09:05:52;97767.91;;;6.72;100.00
9289;BME280;4683;50.864;12.086;2023-01-15T09:08:21;97761.16;;;6.84;100.00
9289;BME280;4683;50.864;12.086;2023-01-15T09:10:55;97758.84;;;6.96;100.00
9289;BME280;4683;50.864;12.086;2023-01-15T09:13:26;97760.84;;;6.94;100.00
9289;BME280;4683;50.864;12.086;2023-01-15T09:15:58;97758.84;;;6.96;100.00
9289;BME280;4683;50.864;12.086;2023-01-15T09:18:27;97774.97;;;6.93;100.00
9289;BME280;4683;50.864;12.086;2023-01-15T09:20:56;97785.81;;;6.90;100.00
9289;BME280;4683;50.864;12.086;2023-01-15T09:23:25;97779.84;;;6.96;100.00
9289;BME280;4683;50.864;12.086;2023-01-15T09:25:57;97791.56;;;7.00;100.00
9289;BME280;4683;50.864;12.086;2023-01-15T09:28:31;97787.16;;;7.07;100.00
9289;BME280;4683;50.864;12.086;2023-01-15T09:31:02;97781.66;;;7.23;100.00
9289;BME280;4683;50.864;12.086;2023-01-15T09:33:34;97781.81;;;7.22;100.00
9289;BME280;4683;50.864;12.086;2023-01-15T09:36:03;97798.19;;;7.24;100.00
9289;BME280;4683;50.864;12.086;2023-01-15T09:38:33;97807.06;;;7.23;100.00
9289;BME280;4683;50.864;12.086;2023-01-15T09:41:10;97813.34;;;7.28;100.00
9289;BME280;4683;50.864;12.086;2023-01-15T09:44:15;97813.47;;;7.14;100.00
9289;BME280;4683;50.864;12.086;2023-01-15T09:46:59;97823.53;;;7.17;100.00
9289;BME280;4683;50.864;12.086;2023-01-15T09:49:53;97827.44;;;6.99;100.00
9289;BME280;4683;50.864;12.086;2023-01-15T09:52:38;97824.09;;;7.12;100.00
9289;BME280;4683;50.864;12.086;2023-01-15T09:55:15;97818.53;;;7.22;100.00
9289;BME280;4683;50.864;12.086;2023-01-15T09:57:51;97823.97;;;7.20;100.00
9289;BME280;4683;50.864;12.086;2023-01-15T10:00:24;97822.81;;;7.23;100.00
9289;BME280;4683;50.864;12.086;2023-01-15T10:02:58;97827.47;;;7.27;100.00
9289;BME280;4683;50.864;12.086;2023-01-15T10:05:32;97837.88;;;7.14;100.00
9289;BME280;4683;50.864;12.086;2023-01-15T10:08:10;97834.81;;;7.10;100.00
9289;BME280;4683;50.864;12.086;2023-01-15T10:10:44;97838.75;;;7.00;100.00
9289;BME280;4683;50.864;12.086;2023-01-15T10:13:22;97840.59;;;7.06;100.00
9289;BME280;4683;50.864;12.086;2023-01-15T10:15:54;97839.72;;;7.20;100.00
9289;BME280;4683;50.864;12.086;2023-01-15T10:18:24;97837.63;;;7.09;100.00
9289;BME280;4683;50.864;12.086;2023-01-15T10:21:15;97828.38;;;7.13;100.00
9289;BME280;4683;50.864;12.086;2023-01-15T10:24:00;97842.47;;;7.12;100.00
9289;BME280;4683;50.864;12.086;2023-01-15T10:26:34;97839.09;;;7.18;100.00
9289;BME280;4683;50.864;12.086;2023-01-15T10:29:15;97838.91;;;7.20;100.00
9289;BME280;4683;50.864;12.086;2023-01-15T10:31:51;97842.03;;;7.08;100.00
9289;BME280;4683;50.864;12.086;2023-01-15T10:34:54;97839.09;;;7.18;100.00
9289;BME280;4683;50.864;12.086;2023-01-15T10:37:28;97840.84;;;7.11;100.00
9289;BME280;4683;50.864;12.086;2023-01-15T10:43:22;97844.59;;;7.02;100.00
9289;BME280;4683;50.864;12.086;2023-01-15T10:45:56;97845.97;;;6.98;100.00
9289;BME280;4683;50.864;12.086;2023-01-15T10:48:31;97848.84;;;7.03;100.00
9289;BME280;4683;50.864;12.086;2023-01-15T10:51:11;97849.34;;;7.13;100.00
9289;BME280;4683;50.864;12.086;2023-01-15T10:53:46;97847.41;;;7.00;100.00
9289;BME280;4683;50.864;12.086;2023-01-15T10:56:31;97849.25;;;7.00;100.00
9289;BME280;4683;50.864;12.086;2023-01-15T10:59:11;97866.34;;;6.96;100.00
9289;BME280;4683;50.864;12.086;2023-01-15T11:01:48;97862.59;;;7.05;100.00
9289;BME280;4683;50.864;12.086;2023-01-15T11:04:21;97863.50;;;6.97;100.00
9289;BME280;4683;50.864;12.086;2023-01-15T11:06:55;97865.34;;;6.97;100.00
9289;BME280;4683;50.864;12.086;2023-01-15T11:09:27;97866.19;;;7.04;100.00
9289;BME280;4683;50.864;12.086;2023-01-15T11:12:16;97856.09;;;7.01;100.00
9289;BME280;4683;50.864;12.086;2023-01-15T11:15:15;97869.09;;;7.09;100.00
9289;BME280;4683;50.864;12.086;2023-01-15T11:18:03;97869.94;;;7.16;100.00
9289;BME280;4683;50.864;12.086;2023-01-15T11:20:55;97857.66;;;7.45;100.00
9289;BME280;4683;50.864;12.086;2023-01-15T11:23:25;97866.16;;;7.47;100.00
9289;BME280;4683;50.864;12.086;2023-01-15T11:25:59;97850.69;;;7.30;100.00
9289;BME280;4683;50.864;12.086;2023-01-15T11:28:37;97880.88;;;7.20;100.00
9289;BME280;4683;50.864;12.086;2023-01-15T11:31:10;97881.78;;;7.33;100.00
9289;BME280;4683;50.864;12.086;2023-01-15T11:33:53;97870.56;;;7.18;100.00
9289;BME280;4683;50.864;12.086;2023-01-15T11:36:27;97858.56;;;7.30;100.00
9289;BME280;4683;50.864;12.086;2023-01-15T11:38:56;97862.41;;;7.34;100.00
9289;BME280;4683;50.864;12.086;2023-01-15T11:41:29;97876.97;;;7.37;100.00
9289;BME280;4683;50.864;12.086;2023-01-15T11:44:27;97861.94;;;7.24;100.00
9289;BME280;4683;50.864;12.086;2023-01-15T11:47:16;97865.69;;;7.15;100.00
9289;BME280;4683;50.864;12.086;2023-01-15T11:50:16;97869.38;;;6.99;100.00
9289;BME280;4683;50.864;12.086;2023-01-15T11:53:03;97861.50;;;6.99;100.00
9289;BME280;4683;50.864;12.086;2023-01-15T11:55:32;97858.06;;;6.99;100.00
9289;BME280;4683;50.864;12.086;2023-01-15T11:58:02;97869.09;;;7.09;100.00
9289;BME280;4683;50.864;12.086;2023-01-15T12:00:35;97857.84;;;6.94;100.00
9289;BME280;4683;50.864;12.086;2023-01-15T12:03:14;97859.59;;;6.86;100.00
9289;BME280;4683;50.864;12.086;2023-01-15T12:05:54;97864.78;;;7.01;100.00
9289;BME280;4683;50.864;12.086;2023-01-15T12:08:42;97856.47;;;6.98;100.00
9289;BME280;4683;50.864;12.086;2023-01-15T12:11:38;97846.34;;;6.95;100.00
9289;BME280;4683;50.864;12.086;2023-01-15T12:14:40;97849.72;;;6.89;100.00
9289;BME280;4683;50.864;12.086;2023-01-15T12:17:41;97861.09;;;6.96;100.00
9289;BME280;4683;50.864;12.086;2023-01-15T12:20:27;97847.91;;;6.89;100.00
9289;BME280;4683;50.864;12.086;2023-01-15T12:23:31;97849.34;;;6.92;100.00
9289;BME280;4683;50.864;12.086;2023-01-15T12:26:16;97853.16;;;6.89;100.00
9289;BME280;4683;50.864;12.086;2023-01-15T12:29:04;97856.22;;;6.93;100.00
9289;BME280;4683;50.864;12.086;2023-01-15T12:31:44;97860.09;;;6.97;100.00
9289;BME280;4683;50.864;12.086;2023-01-15T12:34:22;97855.16;;;6.87;100.00
9289;BME280;4683;50.864;12.086;2023-01-15T12:37:03;97857.25;;;6.98;100.00
9289;BME280;4683;50.864;12.086;2023-01-15T12:39:44;97848.59;;;6.98;100.00
9289;BME280;4683;50.864;12.086;2023-01-15T12:42:22;97862.22;;;6.86;100.00
9289;BME280;4683;50.864;12.086;2023-01-15T12:45:15;97861.22;;;6.88;100.00
9289;BME280;4683;50.864;12.086;2023-01-15T12:47:51;97853.22;;;6.96;100.00
9289;BME280;4683;50.864;12.086;2023-01-15T12:50:34;97837.09;;;6.99;100.00
9289;BME280;4683;50.864;12.086;2023-01-15T12:53:13;97819.69;;;7.12;100.00
9289;BME280;4683;50.864;12.086;2023-01-15T12:55:51;97815.91;;;7.22;100.00
9289;BME280;4683;50.864;12.086;2023-01-15T12:58:41;97836.59;;;7.31;100.00
9289;BME280;4683;50.864;12.086;2023-01-15T13:01:16;97829.34;;;7.33;100.00
9289;BME280;4683;50.864;12.086;2023-01-15T13:04:00;97839.69;;;7.42;100.00
9289;BME280;4683;50.864;12.086;2023-01-15T13:06:34;97833.69;;;7.26;100.00
9289;BME280;4683;50.864;12.086;2023-01-15T13:09:13;97819.72;;;6.91;100.00
9289;BME280;4683;50.864;12.086;2023-01-15T13:11:47;97808.59;;;7.10;100.00
9289;BME280;4683;50.864;12.086;2023-01-15T13:14:16;97799.91;;;6.89;100.00
9289;BME280;4683;50.864;12.086;2023-01-15T13:16:54;97806.75;;;7.11;100.00
9289;BME280;4683;50.864;12.086;2023-01-15T13:19:37;97813.00;;;7.10;100.00
9289;BME280;4683;50.864;12.086;2023-01-15T13:22:14;97818.44;;;7.08;100.00
9289;BME280;4683;50.864;12.086;2023-01-15T13:25:25;97828.44;;;6.98;100.00
9289;BME280;4683;50.864;12.086;2023-01-15T13:28:12;97841.28;;;6.72;100.00
9289;BME280;4683;50.864;12.086;2023-01-15T13:30:56;97839.34;;;6.80;100.00
9289;BME280;4683;50.864;12.086;2023-01-15T13:33:32;97853.97;;;6.90;100.00
9289;BME280;4683;50.864;12.086;2023-01-15T13:36:12;97850.34;;;6.69;100.00
9289;BME280;4683;50.864;12.086;2023-01-15T13:38:45;97843.72;;;6.73;100.00
9289;BME280;4683;50.864;12.086;2023-01-15T13:41:19;97853.47;;;6.79;100.00
9289;BME280;4683;50.864;12.086;2023-01-15T13:44:12;97851.72;;;6.65;100.00
9289;BME280;4683;50.864;12.086;2023-01-15T13:46:43;97861.44;;;6.71;100.00
9289;BME280;4683;50.864;12.086;2023-01-15T13:49:23;97857.19;;;6.70;100.00
9289;BME280;4683;50.864;12.086;2023-01-15T13:51:54;97863.81;;;6.66;100.00
9289;BME280;4683;50.864;12.086;2023-01-15T13:54:33;97863.81;;;6.66;100.00